Terminal Aerodrome Forecast
Issued by NWS

Home | Current Version | Previous Version | Text Only | Print | Product List | Glossary On
Versions: 1 2 3 4 5 6 7 8 9 10 11 12 13 14 15 16 17 18 19 20 21 22 23 24 25 26 27
000
FTUS45 KBYZ 211731
TAFLVM
TAF
KLVM 211731Z 2118/2218 23016G23KT P6SM VCSH BKN050 OVC070
      TEMPO 2118/2120 22028G38KT
     FM212200 23032G42KT P6SM BKN060
     FM220600 25025G40KT P6SM VCSH BKN050 OVC100=

USA.gov is the U.S. government's official web portal to all federal, state and local government web resources and services.